createdAt,value
2018-10-12T00:00:13.144Z,14.00
2018-10-12T00:02:42.028Z,13.99
2018-10-12T00:05:10.525Z,13.97
2018-10-12T00:07:38.496Z,13.91
2018-10-12T00:10:06.547Z,13.90
2018-10-12T00:12:34.273Z,13.83
2018-10-12T00:15:02.342Z,13.72
2018-10-12T00:17:37.493Z,13.50
2018-10-12T00:20:06.421Z,13.49
2018-10-12T00:22:34.365Z,13.44
2018-10-12T00:25:02.121Z,13.45
2018-10-12T00:27:29.826Z,13.40
2018-10-12T00:29:57.670Z,13.37
2018-10-12T00:32:25.346Z,13.47
2018-10-12T00:34:53.050Z,13.48
2018-10-12T00:37:20.717Z,13.30
2018-10-12T00:39:54.530Z,13.35
2018-10-12T00:42:22.228Z,13.35
2018-10-12T00:44:50.021Z,13.24
2018-10-12T00:47:27.648Z,13.27
2018-10-12T00:49:55.513Z,13.22
2018-10-12T00:52:23.164Z,13.27
2018-10-12T00:54:50.845Z,13.26
2018-10-12T00:57:21.349Z,13.22
2018-10-12T00:59:49.484Z,13.23
2018-10-12T01:02:17.217Z,12.99
2018-10-12T01:04:45.519Z,12.98
2018-10-12T01:07:13.501Z,13.01
2018-10-12T01:09:41.277Z,12.94
2018-10-12T01:15:08.269Z,12.87
2018-10-12T01:17:39.298Z,13.00
2018-10-12T01:20:07.654Z,13.07
2018-10-12T01:22:35.594Z,12.92
2018-10-12T01:25:04.202Z,12.93
2018-10-12T01:27:32.131Z,12.87
2018-10-12T01:29:59.946Z,12.80
2018-10-12T01:32:33.536Z,12.80
2018-10-12T01:35:01.281Z,12.86
2018-10-12T01:37:29.049Z,12.85
2018-10-12T01:39:56.858Z,12.77
2018-10-12T01:42:24.660Z,12.74
2018-10-12T01:44:52.344Z,12.71
2018-10-12T01:47:20.013Z,12.73
2018-10-12T01:49:47.768Z,12.71
2018-10-12T01:52:15.448Z,12.51
2018-10-12T01:54:43.156Z,12.53
2018-10-12T01:57:11.669Z,12.56
2018-10-12T01:59:39.344Z,12.47
2018-10-12T02:02:07.289Z,12.49
2018-10-12T02:04:34.934Z,12.43
2018-10-12T02:07:03.057Z,12.46
2018-10-12T02:09:30.738Z,12.45
2018-10-12T02:11:58.565Z,12.46
2018-10-12T02:14:26.808Z,12.43
2018-10-12T02:16:54.605Z,12.39
2018-10-12T02:19:22.341Z,12.38
2018-10-12T02:21:50.047Z,12.37
2018-10-12T02:24:17.682Z,12.36
2018-10-12T02:26:45.365Z,12.32
2018-10-12T02:29:13.165Z,12.18
2018-10-12T02:31:41.268Z,12.22
2018-10-12T02:34:08.932Z,12.17
2018-10-12T02:36:36.937Z,12.07
2018-10-12T02:39:08.389Z,11.96
2018-10-12T02:41:36.071Z,11.99
2018-10-12T02:44:03.745Z,11.94
2018-10-12T02:46:31.509Z,11.82
2018-10-12T02:48:59.209Z,11.82
2018-10-12T02:51:27.470Z,11.81
2018-10-12T02:53:55.165Z,11.77
2018-10-12T02:56:23.618Z,11.86
2018-10-12T02:58:51.773Z,11.76
2018-10-12T03:01:20.461Z,11.80
2018-10-12T03:03:48.413Z,11.67
2018-10-12T03:06:16.232Z,11.69
2018-10-12T03:08:44.085Z,11.71
2018-10-12T03:11:11.829Z,11.73
2018-10-12T03:13:39.941Z,11.60
2018-10-12T03:16:07.673Z,11.61
2018-10-12T03:18:35.419Z,11.67
2018-10-12T03:21:03.112Z,11.59
2018-10-12T03:23:30.826Z,11.57
2018-10-12T03:25:58.752Z,11.60
2018-10-12T03:28:29.993Z,11.48
2018-10-12T03:30:58.122Z,11.53
2018-10-12T03:33:26.393Z,11.44
2018-10-12T03:35:54.565Z,11.39
2018-10-12T03:38:22.312Z,11.39
2018-10-12T03:40:50.058Z,11.35
2018-10-12T03:43:17.829Z,11.14
2018-10-12T03:45:45.641Z,11.10
2018-10-12T03:48:13.416Z,11.14
2018-10-12T03:50:41.132Z,11.19
2018-10-12T03:53:09.445Z,11.14
2018-10-12T03:55:37.185Z,11.16
2018-10-12T03:58:04.959Z,11.19
2018-10-12T04:00:32.651Z,11.18
2018-10-12T04:03:00.419Z,11.17
2018-10-12T04:05:28.080Z,11.08
2018-10-12T04:07:55.796Z,10.96
2018-10-12T04:10:23.555Z,10.97
2018-10-12T04:12:51.321Z,10.98
2018-10-12T04:15:19.116Z,10.95
2018-10-12T04:17:46.857Z,11.02
2018-10-12T04:20:14.553Z,11.06
2018-10-12T04:22:42.295Z,10.88
2018-10-12T04:25:10.128Z,10.81
2018-10-12T04:27:37.828Z,10.76
2018-10-12T04:30:06.143Z,10.75
2018-10-12T04:32:33.912Z,10.69
2018-10-12T04:35:01.638Z,10.80
2018-10-12T04:37:29.278Z,10.85
2018-10-12T04:40:03.825Z,10.76
2018-10-12T04:42:31.621Z,10.79
2018-10-12T04:44:59.361Z,10.76
2018-10-12T04:47:29.489Z,10.84
2018-10-12T04:49:58.736Z,10.84
2018-10-12T04:52:28.714Z,10.79
2018-10-12T04:55:00.688Z,10.73
2018-10-12T04:57:28.477Z,10.70
2018-10-12T04:59:56.272Z,10.72
2018-10-12T05:02:24.445Z,10.62
2018-10-12T05:04:52.321Z,10.65
2018-10-12T05:07:20.318Z,10.68
2018-10-12T05:09:47.969Z,10.57
2018-10-12T05:12:15.701Z,10.67
2018-10-12T05:14:43.857Z,10.65
2018-10-12T05:17:12.506Z,10.54
2018-10-12T05:19:40.179Z,10.60
2018-10-12T05:22:08.076Z,10.52
2018-10-12T05:24:35.911Z,10.57
2018-10-12T05:27:04.064Z,10.52
2018-10-12T05:29:31.916Z,10.55
2018-10-12T05:31:59.827Z,10.65
2018-10-12T05:34:27.674Z,10.53
2018-10-12T05:36:55.379Z,10.57
2018-10-12T05:39:23.090Z,10.54
2018-10-12T05:41:50.958Z,10.40
2018-10-12T05:44:18.914Z,10.41
2018-10-12T05:46:46.944Z,10.43
2018-10-12T05:49:32.185Z,10.41
2018-10-12T05:52:01.317Z,10.39
2018-10-12T05:54:29.053Z,10.47
2018-10-12T05:56:56.849Z,10.35
2018-10-12T05:59:24.681Z,10.45
2018-10-12T06:01:52.697Z,10.44
2018-10-12T06:04:20.353Z,10.43
2018-10-12T06:06:48.157Z,10.53
2018-10-12T06:09:15.922Z,10.55
2018-10-12T06:11:43.933Z,10.70
2018-10-12T06:14:11.601Z,10.77
2018-10-12T06:16:39.345Z,10.90
2018-10-12T06:19:07.129Z,11.00
2018-10-12T06:21:34.888Z,11.15
2018-10-12T06:24:02.629Z,11.31
2018-10-12T06:26:30.286Z,11.34
2018-10-12T06:28:58.073Z,11.33
2018-10-12T06:31:25.789Z,11.43
2018-10-12T06:33:53.494Z,11.44
2018-10-12T06:36:21.219Z,11.54
2018-10-12T06:38:48.917Z,11.56
2018-10-12T06:41:16.637Z,11.66
2018-10-12T06:43:44.304Z,11.79
2018-10-12T06:46:12.073Z,11.81
2018-10-12T06:48:39.807Z,11.84
2018-10-12T06:51:08.029Z,11.80
2018-10-12T06:53:36.345Z,11.78
2018-10-12T06:56:04.042Z,11.72
2018-10-12T06:58:31.742Z,11.72
2018-10-12T07:00:59.481Z,11.76
2018-10-12T07:03:27.303Z,11.81
2018-10-12T07:05:55.101Z,11.84
2018-10-12T07:08:22.875Z,11.85
2018-10-12T07:10:50.625Z,11.99
2018-10-12T07:13:18.273Z,11.98
2018-10-12T07:15:46.005Z,12.13
2018-10-12T07:18:13.689Z,12.13
2018-10-12T07:20:41.417Z,12.11
2018-10-12T07:23:09.102Z,12.18
2018-10-12T07:25:36.796Z,12.21
2018-10-12T07:28:04.505Z,12.27
2018-10-12T07:30:32.214Z,12.39
2018-10-12T07:32:59.917Z,12.49
2018-10-12T07:35:27.570Z,12.69
2018-10-12T07:37:55.341Z,12.65
2018-10-12T07:40:23.061Z,12.72
2018-10-12T07:42:50.797Z,12.95
2018-10-12T07:45:18.515Z,13.07
2018-10-12T07:47:46.165Z,13.29
2018-10-12T07:50:13.881Z,13.31
2018-10-12T07:52:41.553Z,13.36
2018-10-12T07:55:09.245Z,13.33
2018-10-12T07:57:36.961Z,13.39
2018-10-12T08:00:05.698Z,13.47
2018-10-12T08:02:33.397Z,13.66
2018-10-12T08:05:01.045Z,13.75
2018-10-12T08:07:28.818Z,13.81
2018-10-12T08:09:56.529Z,13.75
2018-10-12T08:12:24.273Z,13.88
2018-10-12T08:14:52.005Z,13.99
2018-10-12T08:17:19.764Z,14.00
2018-10-12T08:19:47.889Z,14.01
2018-10-12T08:22:15.672Z,14.09
2018-10-12T08:24:43.477Z,14.18
2018-10-12T08:27:11.244Z,14.20
2018-10-12T08:29:38.874Z,14.27
2018-10-12T08:32:06.730Z,14.21
2018-10-12T08:34:34.612Z,14.43
2018-10-12T08:37:08.599Z,14.56
2018-10-12T08:39:36.549Z,14.64
2018-10-12T08:42:06.500Z,14.64
2018-10-12T08:44:34.603Z,14.85
2018-10-12T08:47:02.953Z,15.01
2018-10-12T08:49:31.265Z,15.11
2018-10-12T08:52:02.481Z,15.10
2018-10-12T08:54:31.415Z,15.23
2018-10-12T08:56:59.626Z,15.23
2018-10-12T08:59:30.071Z,15.36
2018-10-12T09:01:57.809Z,15.49
2018-10-12T09:04:25.606Z,15.55
2018-10-12T09:06:53.280Z,15.62
2018-10-12T09:09:20.937Z,15.71
2018-10-12T09:11:48.641Z,15.72
2018-10-12T09:14:16.342Z,15.86
2018-10-12T09:16:43.994Z,15.95
2018-10-12T09:19:11.702Z,16.02
2018-10-12T09:21:39.422Z,16.05
2018-10-12T09:24:07.220Z,16.26
2018-10-12T09:26:34.929Z,16.46
2018-10-12T09:29:02.645Z,16.51
2018-10-12T09:31:30.406Z,16.70
2018-10-12T09:33:58.152Z,16.99
2018-10-12T09:36:25.963Z,17.04
2018-10-12T09:38:53.639Z,17.11
2018-10-12T09:41:21.433Z,17.19
2018-10-12T09:43:49.119Z,17.25
2018-10-12T09:46:16.845Z,17.34
2018-10-12T09:48:44.645Z,17.35
2018-10-12T09:51:12.317Z,17.49
2018-10-12T09:53:40.013Z,17.56
2018-10-12T09:56:07.845Z,17.74
2018-10-12T09:58:35.620Z,17.76
2018-10-12T10:01:09.147Z,17.96
2018-10-12T10:03:42.509Z,18.03
2018-10-12T10:06:10.209Z,18.08
2018-10-12T10:08:37.962Z,18.32
2018-10-12T10:11:05.697Z,18.60
2018-10-12T10:13:33.434Z,18.71
2018-10-12T10:16:04.720Z,18.94
2018-10-12T10:18:32.486Z,19.11
2018-10-12T10:21:00.205Z,19.26
2018-10-12T10:23:27.905Z,19.35
2018-10-12T10:25:55.629Z,19.38
2018-10-12T10:28:23.320Z,19.54
2018-10-12T10:30:50.968Z,19.66
2018-10-12T10:33:18.725Z,20.25
2018-10-12T10:35:46.436Z,20.59
2018-10-12T10:38:14.172Z,20.61
2018-10-12T10:40:41.899Z,21.19
2018-10-12T10:43:09.598Z,21.94
2018-10-12T10:45:37.323Z,22.72
2018-10-12T10:48:05.006Z,22.99
2018-10-12T10:50:32.737Z,23.32
2018-10-12T10:53:00.540Z,23.22
2018-10-12T10:55:28.216Z,24.10
2018-10-12T10:57:56.014Z,24.65
2018-10-12T11:00:23.922Z,24.93
2018-10-12T11:02:51.614Z,25.66
2018-10-12T11:05:19.253Z,25.95
2018-10-12T11:07:46.990Z,25.81
2018-10-12T11:10:14.697Z,26.67
2018-10-12T11:12:42.449Z,26.78
2018-10-12T11:15:10.085Z,27.13
2018-10-12T11:17:37.881Z,27.19
2018-10-12T11:20:06.300Z,27.14
2018-10-12T11:22:34.050Z,27.56
2018-10-12T11:25:01.874Z,27.24
2018-10-12T11:27:29.559Z,27.37
2018-10-12T11:29:57.329Z,27.30
2018-10-12T11:32:26.237Z,27.37
2018-10-12T11:34:53.953Z,27.30
2018-10-12T11:37:21.682Z,27.31
2018-10-12T11:39:49.384Z,27.29
2018-10-12T11:42:17.178Z,27.58
2018-10-12T11:44:44.921Z,27.33
2018-10-12T11:47:12.694Z,27.56
2018-10-12T11:49:40.396Z,27.67
2018-10-12T11:52:08.207Z,27.15
2018-10-12T11:54:35.822Z,27.20
2018-10-12T11:57:03.517Z,27.31
2018-10-12T11:59:31.245Z,27.09
2018-10-12T12:01:58.916Z,27.48
2018-10-12T12:04:26.620Z,27.03
2018-10-12T12:06:54.305Z,27.22
2018-10-12T12:09:22.084Z,27.27
2018-10-12T12:11:49.800Z,27.21
2018-10-12T12:14:17.524Z,27.39
2018-10-12T12:16:45.214Z,27.30
2018-10-12T12:19:13.038Z,27.17
2018-10-12T12:21:40.593Z,26.95
2018-10-12T12:24:08.337Z,26.62
2018-10-12T12:26:36.023Z,26.70
2018-10-12T12:29:03.774Z,26.53
2018-10-12T12:31:31.550Z,26.22
2018-10-12T12:33:59.342Z,26.21
2018-10-12T12:36:27.665Z,26.21
2018-10-12T12:38:55.414Z,26.13
2018-10-12T12:41:23.145Z,26.06
2018-10-12T12:43:50.829Z,26.07
2018-10-12T12:46:19.222Z,26.02
2018-10-12T12:48:47.427Z,25.85
2018-10-12T12:51:14.685Z,25.63
2018-10-12T12:53:43.232Z,25.66
2018-10-12T12:56:11.606Z,25.65
2018-10-12T12:58:39.233Z,25.59
2018-10-12T13:01:07.133Z,25.57
2018-10-12T13:03:34.810Z,25.45
2018-10-12T13:06:02.455Z,25.45
2018-10-12T13:08:30.197Z,25.48
2018-10-12T13:10:57.898Z,25.45
2018-10-12T13:13:25.535Z,25.46
2018-10-12T13:15:53.287Z,25.47
2018-10-12T13:18:21.047Z,25.24
2018-10-12T13:20:48.729Z,25.27
2018-10-12T13:23:16.408Z,25.35
2018-10-12T13:25:44.141Z,25.25
2018-10-12T13:28:11.821Z,25.27
2018-10-12T13:30:39.532Z,25.25
2018-10-12T13:33:07.212Z,25.21
2018-10-12T13:35:35.005Z,25.28
2018-10-12T13:38:02.701Z,25.27
2018-10-12T13:40:30.424Z,25.27
2018-10-12T13:42:58.157Z,25.22
2018-10-12T13:45:25.869Z,25.23
2018-10-12T13:47:53.548Z,25.22
2018-10-12T13:50:21.257Z,25.23
2018-10-12T13:52:48.965Z,25.23
2018-10-12T13:55:16.654Z,25.29
2018-10-12T13:57:44.310Z,25.25
2018-10-12T14:00:12.086Z,25.28
2018-10-12T14:02:39.669Z,25.26
2018-10-12T14:05:07.437Z,25.33
2018-10-12T14:07:35.141Z,25.28
2018-10-12T14:10:03.031Z,25.38
2018-10-12T14:12:30.906Z,25.45
2018-10-12T14:14:58.427Z,25.48
2018-10-12T14:17:26.170Z,25.51
2018-10-12T14:19:53.830Z,25.52
2018-10-12T14:22:21.565Z,25.51
2018-10-12T14:24:49.298Z,25.49
2018-10-12T14:27:16.947Z,25.49
2018-10-12T14:29:44.689Z,25.52
2018-10-12T14:32:12.422Z,25.51
2018-10-12T14:34:40.173Z,25.49
2018-10-12T14:37:07.905Z,25.51
2018-10-12T14:39:35.593Z,25.47
2018-10-12T14:42:03.283Z,25.46
2018-10-12T14:44:31.568Z,25.42
2018-10-12T14:46:59.303Z,25.37
2018-10-12T14:49:27.033Z,25.33
2018-10-12T14:51:54.786Z,25.32
2018-10-12T14:54:22.535Z,25.31
2018-10-12T14:56:50.288Z,25.27
2018-10-12T14:59:18.027Z,25.27
2018-10-12T15:01:45.693Z,25.21
2018-10-12T15:04:13.437Z,25.25
2018-10-12T15:06:41.181Z,25.29
2018-10-12T15:09:11.614Z,25.24
2018-10-12T15:11:39.345Z,25.23
2018-10-12T15:14:07.013Z,25.23
2018-10-12T15:16:34.821Z,25.19
2018-10-12T15:19:02.641Z,25.17
2018-10-12T15:21:30.426Z,25.14
2018-10-12T15:23:58.132Z,25.11
2018-10-12T15:26:25.897Z,25.12
2018-10-12T15:28:53.564Z,25.01
2018-10-12T15:31:21.215Z,25.01
2018-10-12T15:33:48.958Z,24.99
2018-10-12T15:36:16.697Z,24.92
2018-10-12T15:38:44.471Z,24.85
2018-10-12T15:41:12.169Z,24.76
2018-10-12T15:43:39.994Z,24.74
2018-10-12T15:46:07.757Z,24.70
2018-10-12T15:48:35.566Z,24.64
2018-10-12T15:51:03.312Z,24.64
2018-10-12T15:53:31.071Z,24.63
2018-10-12T15:55:58.797Z,24.52
2018-10-12T15:58:26.505Z,24.37
2018-10-12T16:00:54.286Z,24.24
2018-10-12T16:03:22.033Z,24.17
2018-10-12T16:05:49.785Z,24.08
2018-10-12T16:08:17.775Z,23.97
2018-10-12T16:10:45.456Z,24.01
2018-10-12T16:13:13.125Z,23.91
2018-10-12T16:15:40.809Z,23.83
2018-10-12T16:18:08.483Z,23.76
2018-10-12T16:20:36.169Z,23.65
2018-10-12T16:23:03.842Z,23.55
2018-10-12T16:26:00.877Z,23.43
2018-10-12T16:28:28.607Z,23.26
2018-10-12T16:30:56.713Z,23.17
2018-10-12T16:33:24.877Z,23.09
2018-10-12T16:35:53.561Z,23.00
2018-10-12T16:38:21.501Z,22.92
2018-10-12T16:40:49.193Z,22.78
2018-10-12T16:43:17.126Z,22.74
2018-10-12T16:45:46.154Z,22.61
2018-10-12T16:48:13.865Z,22.31
2018-10-12T16:50:41.600Z,22.18
2018-10-12T16:53:09.649Z,22.16
2018-10-12T16:55:37.497Z,21.94
2018-10-12T16:58:05.290Z,21.79
2018-10-12T17:00:32.978Z,21.62
2018-10-12T17:03:00.672Z,21.52
2018-10-12T17:05:28.404Z,21.47
2018-10-12T17:07:56.981Z,21.45
2018-10-12T17:10:35.612Z,21.56
2018-10-12T17:13:14.572Z,21.51
2018-10-12T17:15:45.951Z,21.34
2018-10-12T17:18:15.290Z,21.14
2018-10-12T17:20:43.028Z,21.30
2018-10-12T17:23:10.769Z,21.09
2018-10-12T17:25:38.434Z,20.82
2018-10-12T17:28:06.152Z,20.59
2018-10-12T17:30:33.889Z,20.71
2018-10-12T17:33:01.569Z,20.70
2018-10-12T17:35:29.278Z,20.40
2018-10-12T17:37:56.970Z,20.21
2018-10-12T17:40:24.616Z,20.12
2018-10-12T17:42:52.348Z,20.05
2018-10-12T17:45:20.336Z,20.08
2018-10-12T17:47:49.037Z,20.12
2018-10-12T17:50:26.456Z,19.89
2018-10-12T17:53:03.283Z,19.89
2018-10-12T17:55:34.797Z,19.92
2018-10-12T17:58:02.968Z,19.76
2018-10-12T18:00:30.810Z,19.68
2018-10-12T18:02:58.493Z,19.62
2018-10-12T18:05:33.850Z,19.49
2018-10-12T18:08:01.629Z,19.33
2018-10-12T18:10:29.324Z,19.29
2018-10-12T18:12:56.989Z,18.96
2018-10-12T18:15:24.689Z,18.89
2018-10-12T18:17:52.401Z,18.87
2018-10-12T18:20:25.092Z,18.66
2018-10-12T18:22:53.597Z,18.57
2018-10-12T18:25:21.469Z,18.47
2018-10-12T18:27:49.177Z,18.39
2018-10-12T18:30:16.861Z,18.37
2018-10-12T18:32:44.673Z,18.34
2018-10-12T18:35:12.371Z,18.14
2018-10-12T18:37:40.049Z,18.03
2018-10-12T18:40:07.774Z,17.98
2018-10-12T18:42:35.601Z,17.95
2018-10-12T18:45:03.349Z,18.03
2018-10-12T18:47:31.064Z,18.19
2018-10-12T18:49:59.414Z,18.11
2018-10-12T18:52:27.141Z,18.02
2018-10-12T18:54:54.781Z,17.88
2018-10-12T18:57:22.477Z,18.03
2018-10-12T18:59:50.220Z,17.94
2018-10-12T19:02:18.076Z,17.75
2018-10-12T19:04:46.868Z,17.59
2018-10-12T19:07:14.393Z,17.45
2018-10-12T19:09:42.136Z,17.77
2018-10-12T19:12:09.873Z,17.52
2018-10-12T19:14:37.545Z,17.36
2018-10-12T19:17:05.844Z,17.27
2018-10-12T19:19:35.944Z,17.29
2018-10-12T19:22:03.661Z,17.29
2018-10-12T19:24:31.344Z,17.17
2018-10-12T19:26:58.994Z,17.17
2018-10-12T19:29:26.766Z,17.00
2018-10-12T19:31:56.040Z,16.97
2018-10-12T19:34:23.665Z,16.88
2018-10-12T19:36:51.371Z,16.91
2018-10-12T19:39:19.085Z,16.96
2018-10-12T19:41:46.817Z,16.80
2018-10-12T19:44:14.498Z,16.59
2018-10-12T19:46:42.210Z,16.49
2018-10-12T19:49:09.960Z,16.53
2018-10-12T19:51:37.689Z,16.40
2018-10-12T19:54:06.403Z,16.41
2018-10-12T19:56:34.086Z,16.37
2018-10-12T19:59:01.860Z,16.25
2018-10-12T20:01:29.581Z,16.28
2018-10-12T20:03:57.305Z,16.20
2018-10-12T20:06:25.025Z,16.11
2018-10-12T20:08:52.771Z,16.05
2018-10-12T20:11:20.457Z,15.98
2018-10-12T20:13:48.115Z,16.07
2018-10-12T20:16:15.862Z,16.07
2018-10-12T20:18:43.716Z,15.98
2018-10-12T20:21:11.449Z,16.01
2018-10-12T20:23:45.638Z,15.99
2018-10-12T20:26:21.111Z,15.83
2018-10-12T20:28:48.901Z,15.77
2018-10-12T20:31:18.675Z,15.83
2018-10-12T20:33:46.452Z,15.81
2018-10-12T20:36:14.201Z,15.69
2018-10-12T20:38:41.940Z,15.70
2018-10-12T20:41:09.621Z,15.81
2018-10-12T20:43:37.257Z,15.81
2018-10-12T20:46:09.508Z,15.85
2018-10-12T20:48:37.394Z,15.63
2018-10-12T20:51:05.201Z,15.57
2018-10-12T20:53:32.871Z,15.33
2018-10-12T20:56:00.581Z,15.29
2018-10-12T20:58:28.300Z,15.22
2018-10-12T21:00:56.002Z,15.29
2018-10-12T21:03:23.698Z,15.25
2018-10-12T21:05:51.426Z,15.29
2018-10-12T21:08:19.088Z,15.20
2018-10-12T21:10:46.760Z,15.10
2018-10-12T21:13:14.447Z,15.12
2018-10-12T21:15:42.069Z,14.99
2018-10-12T21:18:09.773Z,15.01
2018-10-12T21:20:37.452Z,15.05
2018-10-12T21:23:05.173Z,14.90
2018-10-12T21:25:32.869Z,14.88
2018-10-12T21:28:00.577Z,14.85
2018-10-12T21:30:28.370Z,14.92
2018-10-12T21:33:01.930Z,14.82
2018-10-12T21:35:31.867Z,14.76
2018-10-12T21:37:59.559Z,14.77
2018-10-12T21:40:27.338Z,14.72
2018-10-12T21:42:54.928Z,14.65
2018-10-12T21:45:22.749Z,14.68
2018-10-12T21:47:50.400Z,14.67
2018-10-12T21:50:18.311Z,14.68
2018-10-12T21:52:45.976Z,14.56
2018-10-12T21:55:13.717Z,14.57
2018-10-12T21:57:41.461Z,14.53
2018-10-12T22:00:09.812Z,14.52
2018-10-12T22:02:42.910Z,14.54
2018-10-12T22:05:11.549Z,14.48
2018-10-12T22:07:44.443Z,14.44
2018-10-12T22:10:16.218Z,14.59
2018-10-12T22:12:44.078Z,14.46
2018-10-12T22:15:23.465Z,14.37
2018-10-12T22:17:52.961Z,14.29
2018-10-12T22:20:24.516Z,14.29
2018-10-12T22:22:55.040Z,14.28
2018-10-12T22:25:28.745Z,14.20
2018-10-12T22:28:02.833Z,14.18
2018-10-12T22:30:31.738Z,14.10
2018-10-12T22:32:59.517Z,14.09
2018-10-12T22:35:27.249Z,14.00
2018-10-12T22:37:54.905Z,13.94
2018-10-12T22:40:29.759Z,13.86
2018-10-12T22:42:57.599Z,13.88
2018-10-12T22:45:25.505Z,13.87
2018-10-12T22:47:56.346Z,13.89
2018-10-12T22:50:30.575Z,13.93
2018-10-12T22:52:58.381Z,14.00
2018-10-12T22:55:26.085Z,13.92
2018-10-12T22:57:59.518Z,13.87
2018-10-12T23:00:27.597Z,13.82
2018-10-12T23:02:55.253Z,13.73
2018-10-12T23:05:22.965Z,13.68
2018-10-12T23:07:57.102Z,13.64
2018-10-12T23:10:25.816Z,13.59
2018-10-12T23:12:54.352Z,13.60
2018-10-12T23:15:22.409Z,13.55
2018-10-12T23:17:50.118Z,13.49
2018-10-12T23:20:21.009Z,13.50
2018-10-12T23:22:48.945Z,13.54
2018-10-12T23:25:16.707Z,13.56
2018-10-12T23:27:44.876Z,13.51
2018-10-12T23:30:13.287Z,13.45
2018-10-12T23:32:44.383Z,13.36
2018-10-12T23:35:12.040Z,13.42
2018-10-12T23:37:39.773Z,13.42
2018-10-12T23:40:07.524Z,13.34
2018-10-12T23:42:35.272Z,13.25
2018-10-12T23:45:03.441Z,13.18
2018-10-12T23:47:37.024Z,13.12
2018-10-12T23:50:08.659Z,13.11
2018-10-12T23:52:36.393Z,13.10
2018-10-12T23:55:04.325Z,13.12
2018-10-12T23:57:32.105Z,13.04
2018-10-12T23:59:59.852Z,13.03
